Time;durP1;ratioP1;P1;durP2;ratioP2;P2;SDS_P1;SDS_P2;PMS_P1;PMS_P2;Temp;Humidity;BMP_temperature;BMP_pressure;BME280_temperature;BME280_humidity;BME280_pressure;Samples;Min_cycle;Max_cycle;Signal;HPM_P1;HPM_P2
2021/07/03 00:01:58;;;;;;;;;11.25;9.75;;;;;23.18;57.68;101160.28;4936902;28;45476;-77
2021/07/03 00:04:25;;;;;;;;;14.00;12.00;;;;;23.13;58.15;101152.66;4937019;28;45437;-76
2021/07/03 00:06:50;;;;;;;;;8.00;7.50;;;;;23.10;58.39;101155.59;4935663;28;45566;-76
2021/07/03 00:09:16;;;;;;;;;12.25;12.00;;;;;23.09;58.00;101161.94;4934442;28;46302;-75
2021/07/03 00:11:41;;;;;;;;;11.25;10.75;;;;;23.09;58.47;101161.94;4935847;28;47528;-76
2021/07/03 00:14:07;;;;;;;;;11.50;9.50;;;;;23.07;58.52;101171.09;4934543;28;45591;-76
2021/07/03 00:16:33;;;;;;;;;12.00;10.75;;;;;23.04;58.67;101169.53;4937418;28;45517;-77
2021/07/03 00:18:59;;;;;;;;;12.00;11.00;;;;;23.02;58.53;101176.00;4935343;28;45448;-75
2021/07/03 00:21:25;;;;;;;;;12.00;10.50;;;;;23.00;59.57;101177.97;4928983;28;45569;-77
2021/07/03 00:23:50;;;;;;;;;9.50;9.50;;;;;22.96;58.97;101173.88;4935028;28;45374;-75
2021/07/03 00:26:15;;;;;;;;;16.00;12.25;;;;;22.91;59.77;101182.31;4936006;28;45688;-75
2021/07/03 00:28:41;;;;;;;;;14.00;12.00;;;;;22.87;59.77;101170.16;4936602;28;45508;-76
2021/07/03 00:31:06;;;;;;;;;13.00;11.00;;;;;22.85;59.63;101166.75;4934889;28;45502;-76
2021/07/03 00:33:31;;;;;;;;;12.75;11.75;;;;;22.83;59.93;101174.09;4935596;28;45720;-75
2021/07/03 00:35:57;;;;;;;;;13.00;12.00;;;;;22.79;60.10;101170.81;4934948;28;45503;-75
2021/07/03 00:38:22;;;;;;;;;13.00;12.25;;;;;22.75;60.44;101168.53;4935150;28;47082;-75
2021/07/03 00:40:47;;;;;;;;;11.25;11.25;;;;;22.72;59.88;101167.00;4937851;28;45502;-75
2021/07/03 00:43:13;;;;;;;;;13.00;13.00;;;;;22.65;60.08;101157.75;4935619;28;45507;-75
2021/07/03 00:45:39;;;;;;;;;13.50;11.75;;;;;22.61;60.03;101167.91;4935635;28;45373;-75
2021/07/03 00:48:05;;;;;;;;;12.50;11.00;;;;;22.56;59.97;101167.47;4935786;28;45511;-75
2021/07/03 00:50:31;;;;;;;;;10.50;10.00;;;;;22.53;60.20;101158.84;4934953;28;45284;-75
2021/07/03 00:52:57;;;;;;;;;12.25;11.50;;;;;22.49;60.74;101168.97;4936647;28;45214;-75
2021/07/03 00:55:22;;;;;;;;;13.25;11.00;;;;;22.46;60.98;101160.38;4935836;28;45300;-76
2021/07/03 00:57:49;;;;;;;;;13.75;12.25;;;;;22.41;60.47;101160.75;4932922;28;46312;-76
2021/07/03 01:00:16;;;;;;;;;12.50;10.00;;;;;22.37;60.85;101154.81;4934936;28;45710;-76
2021/07/03 01:02:41;;;;;;;;;11.75;10.75;;;;;22.33;61.31;101155.19;4935877;28;45482;-76
2021/07/03 01:05:07;;;;;;;;;10.00;10.00;;;;;22.30;60.96;101155.47;4935326;28;45604;-76
2021/07/03 01:07:33;;;;;;;;;13.00;11.50;;;;;22.25;61.50;101155.03;4936212;28;45411;-76
2021/07/03 01:09:59;;;;;;;;;12.50;10.50;;;;;22.19;61.60;101145.69;4935242;28;45663;-75
2021/07/03 01:12:24;;;;;;;;;9.75;8.50;;;;;22.18;61.28;101151.16;4935100;28;45563;-75
2021/07/03 01:14:51;;;;;;;;;13.50;13.00;;;;;22.12;61.67;101155.19;4935260;28;45499;-75
2021/07/03 01:17:17;;;;;;;;;13.75;10.75;;;;;22.10;61.97;101154.47;4934740;28;46574;-75
2021/07/03 01:19:43;;;;;;;;;10.75;10.75;;;;;22.05;62.20;101151.31;4936643;28;45699;-76
2021/07/03 01:22:11;;;;;;;;;13.00;11.25;;;;;22.01;61.98;101147.19;4933574;28;45572;-75
2021/07/03 01:24:37;;;;;;;;;10.75;10.00;;;;;21.98;62.29;101144.78;4935116;28;45375;-76
2021/07/03 01:27:05;;;;;;;;;13.00;13.00;;;;;21.93;62.08;101142.50;4935128;28;45732;-75
2021/07/03 01:29:32;;;;;;;;;9.25;9.25;;;;;21.90;62.46;101137.41;4934295;28;45598;-75
2021/07/03 01:31:58;;;;;;;;;13.00;12.25;;;;;21.85;62.44;101137.78;4935983;28;45595;-75
2021/07/03 01:34:26;;;;;;;;;16.75;15.75;;;;;21.82;62.83;101123.81;4935208;28;45526;-75
2021/07/03 01:36:52;;;;;;;;;13.75;11.50;;;;;21.80;62.88;101140.00;4933464;28;46359;-76
2021/07/03 01:39:18;;;;;;;;;11.50;10.75;;;;;21.79;63.09;101132.13;4935093;28;45509;-75
2021/07/03 01:41:43;;;;;;;;;20.00;12.25;;;;;21.77;62.74;101131.38;4934727;28;45548;-76
2021/07/03 01:44:09;;;;;;;;;13.75;13.75;;;;;21.77;63.21;101128.69;4934935;28;45400;-75
2021/07/03 01:46:35;;;;;;;;;11.50;11.00;;;;;21.77;63.01;101132.25;4950731;28;46223;-76
2021/07/03 01:49:05;;;;;;;;;13.25;13.25;;;;;21.77;63.15;101118.00;4934840;28;45425;-76
2021/07/03 01:51:31;;;;;;;;;11.75;11.75;;;;;21.75;63.25;101117.28;4934181;28;45407;-75
2021/07/03 01:53:56;;;;;;;;;13.00;13.00;;;;;21.74;63.34;101123.63;4934139;28;45539;-75
2021/07/03 01:56:22;;;;;;;;;14.00;13.25;;;;;21.73;63.70;101121.94;4934510;28;45391;-75
2021/07/03 01:58:47;;;;;;;;;11.75;10.50;;;;;21.72;63.48;101115.75;4934925;28;45573;-76
2021/07/03 02:01:12;;;;;;;;;10.75;10.00;;;;;21.73;63.43;101119.25;4934928;28;47122;-76
2021/07/03 02:03:38;;;;;;;;;12.25;11.50;;;;;21.72;63.92;101117.56;4934393;28;45330;-75
2021/07/03 02:06:04;;;;;;;;;14.50;12.50;;;;;21.73;63.91;101121.94;4933829;28;46058;-76
2021/07/03 02:08:31;;;;;;;;;10.75;10.75;;;;;21.72;63.71;101121.09;4934471;28;45495;-75
2021/07/03 02:10:56;;;;;;;;;15.00;13.00;;;;;21.72;64.08;101104.19;4935316;28;45454;-75
2021/07/03 02:13:21;;;;;;;;;12.75;11.50;;;;;21.73;64.11;101105.88;4935150;28;46274;-76
2021/07/03 02:15:48;;;;;;;;;14.25;10.00;;;;;21.73;63.86;101112.06;4933900;28;47494;-76
2021/07/03 02:18:14;;;;;;;;;9.50;9.50;;;;;21.73;64.09;101112.06;4933955;28;45480;-75
2021/07/03 02:20:39;;;;;;;;;12.50;11.00;;;;;21.73;64.14;101111.22;4933703;28;45413;-75
2021/07/03 02:23:04;;;;;;;;;15.75;13.25;;;;;21.74;63.92;101107.56;4937309;28;45381;-77
2021/07/03 02:25:31;;;;;;;;;12.00;11.75;;;;;21.72;64.25;101112.22;4940098;28;45514;-75
2021/07/03 02:27:56;;;;;;;;;15.00;12.00;;;;;21.72;63.75;101112.22;4940278;28;45736;-75
2021/07/03 02:30:22;;;;;;;;;12.25;12.25;;;;;21.72;64.50;101109.53;4942478;28;45451;-75
2021/07/03 02:32:48;;;;;;;;;15.00;11.75;;;;;21.71;63.75;101122.03;4943718;28;45768;-75
2021/07/03 02:35:15;;;;;;;;;13.50;10.50;;;;;21.72;64.04;101120.25;4944998;28;45298;-75
2021/07/03 02:37:42;;;;;;;;;15.50;12.50;;;;;21.70;64.24;101119.50;4946460;28;45408;-76
2021/07/03 02:40:10;;;;;;;;;11.75;10.50;;;;;21.65;64.40;101109.19;4945589;28;45445;-76
2021/07/03 02:42:37;;;;;;;;;12.50;11.50;;;;;21.59;64.32;101115.91;4943706;28;45452;-76
2021/07/03 02:45:05;;;;;;;;;15.50;11.50;;;;;21.55;64.63;101110.94;4944790;28;45421;-76
2021/07/03 02:47:30;;;;;;;;;10.25;10.25;;;;;21.50;64.72;101105.13;4945467;28;45478;-75
2021/07/03 02:49:55;;;;;;;;;13.25;9.75;;;;;21.45;65.02;101104.63;4946058;28;45773;-75
2021/07/03 02:52:21;;;;;;;;;10.00;10.00;;;;;21.41;64.71;101096.06;4944967;28;45449;-76
2021/07/03 02:54:48;;;;;;;;;12.75;11.00;;;;;21.36;64.69;101107.13;4945036;28;46268;-75
2021/07/03 02:57:14;;;;;;;;;11.25;10.50;;;;;21.31;64.97;101105.81;4943664;28;45716;-75
2021/07/03 02:59:39;;;;;;;;;10.25;10.25;;;;;21.26;65.24;101103.47;4944866;28;45402;-75
2021/07/03 03:02:04;;;;;;;;;14.75;13.00;;;;;21.22;65.28;101104.69;4944881;28;45439;-75
2021/07/03 03:04:30;;;;;;;;;13.25;11.25;;;;;21.19;65.50;101112.09;4945420;28;46229;-76
2021/07/03 03:06:55;;;;;;;;;12.75;11.75;;;;;21.16;66.32;101107.03;4943889;28;45342;-76
2021/07/03 03:09:20;;;;;;;;;13.50;12.75;;;;;21.13;66.04;101100.09;4942934;28;47401;-76
2021/07/03 03:11:46;;;;;;;;;12.75;12.00;;;;;21.10;66.94;101098.53;4938304;28;45435;-76
2021/07/03 03:14:11;;;;;;;;;12.00;12.00;;;;;21.10;66.35;101101.19;4937126;28;45979;-76
2021/07/03 03:16:36;;;;;;;;;11.25;11.25;;;;;21.10;66.72;101101.19;4938440;28;45495;-75
2021/07/03 03:19:02;;;;;;;;;12.75;12.75;;;;;21.13;67.15;101104.59;4936505;28;45356;-75
2021/07/03 03:21:27;;;;;;;;;14.25;12.50;;;;;21.13;67.63;101097.41;4936813;28;45547;-75
2021/07/03 03:23:53;;;;;;;;;12.75;12.00;;;;;21.16;66.85;101099.00;4935721;28;46029;-76
2021/07/03 03:26:18;;;;;;;;;13.75;12.00;;;;;21.17;67.04;101098.88;4936851;28;45624;-75
2021/07/03 03:28:44;;;;;;;;;13.00;12.00;;;;;21.19;66.71;101102.25;4937574;28;46829;-75
2021/07/03 03:31:09;;;;;;;;;16.00;12.50;;;;;21.19;66.52;101088.03;4936473;28;45448;-75
2021/07/03 03:33:35;;;;;;;;;12.25;11.75;;;;;21.20;66.14;101087.94;4935912;28;46578;-75
2021/07/03 03:36:00;;;;;;;;;13.75;10.00;;;;;21.22;65.48;101082.47;4935117;28;45711;-75
2021/07/03 03:38:26;;;;;;;;;13.50;10.75;;;;;21.22;65.88;101085.13;4936633;28;45397;-75
2021/07/03 03:40:51;;;;;;;;;20.00;14.00;;;;;21.22;66.02;101094.00;4938127;28;45482;-75
2021/07/03 03:43:17;;;;;;;;;14.25;13.00;;;;;21.23;66.17;101093.00;4936080;28;46162;-76
2021/07/03 03:45:42;;;;;;;;;16.25;13.00;;;;;21.24;66.37;101097.38;4935280;28;45595;-75
2021/07/03 03:48:08;;;;;;;;;12.75;11.00;;;;;21.24;66.13;101094.72;4935809;28;45642;-75
2021/07/03 03:50:34;;;;;;;;;13.00;12.75;;;;;21.24;66.27;101097.38;4936779;28;45436;-76
2021/07/03 03:53:01;;;;;;;;;30.50;30.50;;;;;21.24;66.27;101093.84;4936842;28;48291;-75
2021/07/03 03:55:27;;;;;;;;;15.50;15.00;;;;;21.23;66.10;101093.00;4937065;28;45833;-75
2021/07/03 03:57:52;;;;;;;;;15.25;13.25;;;;;21.21;65.75;101094.97;4935897;28;45490;-75
2021/07/03 04:00:18;;;;;;;;;13.00;12.50;;;;;21.19;66.05;101090.72;4936328;28;45451;-75
2021/07/03 04:02:44;;;;;;;;;12.50;12.25;;;;;21.20;66.34;101097.78;4935305;28;45369;-76
2021/07/03 04:05:10;;;;;;;;;13.50;10.50;;;;;21.18;65.94;101105.06;4935951;28;45380;-75
2021/07/03 04:07:35;;;;;;;;;15.00;12.00;;;;;21.19;66.50;101104.06;4937403;28;45431;-75
2021/07/03 04:10:02;;;;;;;;;17.25;13.75;;;;;21.19;66.27;101109.44;4936361;28;45404;-76
2021/07/03 04:12:27;;;;;;;;;13.00;11.00;;;;;21.18;66.02;101107.72;4935716;28;47307;-76
2021/07/03 04:14:53;;;;;;;;;14.50;12.25;;;;;21.22;66.37;101122.56;4935821;28;45405;-76
2021/07/03 04:17:18;;;;;;;;;10.75;10.75;;;;;21.22;66.17;101123.41;4935712;28;45313;-76
2021/07/03 04:19:43;;;;;;;;;11.00;9.00;;;;;21.23;66.33;101119.75;4938018;28;45428;-76
2021/07/03 04:22:09;;;;;;;;;12.50;11.00;;;;;21.25;66.50;101114.28;4935719;28;46134;-75
2021/07/03 04:24:34;;;;;;;;;16.50;14.50;;;;;21.25;66.59;101122.31;4935572;28;45487;-75
2021/07/03 04:27:00;;;;;;;;;15.00;14.50;;;;;21.26;66.40;101127.53;4934849;28;45443;-75
2021/07/03 04:29:26;;;;;;;;;12.00;11.50;;;;;21.27;66.01;101123.88;4935120;28;45822;-75
2021/07/03 04:31:51;;;;;;;;;11.25;11.00;;;;;21.27;66.64;101115.00;4936354;28;45370;-76
2021/07/03 04:34:17;;;;;;;;;10.50;10.50;;;;;21.29;66.05;101123.75;4936067;28;45578;-75
2021/07/03 04:36:43;;;;;;;;;13.00;9.25;;;;;21.32;66.46;101129.72;4935255;28;45505;-75
2021/07/03 04:39:08;;;;;;;;;13.50;13.25;;;;;21.35;66.46;101131.28;4935515;28;45589;-76
2021/07/03 04:41:35;;;;;;;;;14.00;14.00;;;;;21.38;66.53;101123.03;4935450;28;46925;-75
2021/07/03 04:44:00;;;;;;;;;15.25;10.00;;;;;21.41;65.87;101128.13;4936552;28;45460;-75
2021/07/03 04:46:25;;;;;;;;;14.25;13.25;;;;;21.44;66.25;101129.69;4936077;28;45359;-76
2021/07/03 04:48:51;;;;;;;;;20.00;14.50;;;;;21.48;66.27;101137.34;4935258;28;49780;-75
2021/07/03 04:51:16;;;;;;;;;17.25;13.50;;;;;21.54;66.22;101134.16;4935671;28;45468;-76
2021/07/03 04:53:41;;;;;;;;;16.25;13.75;;;;;21.61;66.58;101131.81;4935300;28;45385;-75
2021/07/03 04:56:07;;;;;;;;;13.50;12.50;;;;;21.69;65.97;101131.19;4935219;28;45639;-75
2021/07/03 04:58:32;;;;;;;;;14.75;11.00;;;;;21.75;66.01;101133.34;4936414;28;45436;-76
2021/07/03 05:00:58;;;;;;;;;11.25;8.25;;;;;21.81;66.04;101132.81;4934453;28;46947;-75
2021/07/03 05:03:23;;;;;;;;;12.50;11.00;;;;;21.85;66.10;101134.28;4935185;28;45861;-75
2021/07/03 05:05:48;;;;;;;;;15.25;12.25;;;;;21.90;65.64;101129.38;4935175;28;45487;-76
2021/07/03 05:08:14;;;;;;;;;13.75;12.00;;;;;21.96;65.52;101134.22;4934876;28;45340;-76
2021/07/03 05:10:39;;;;;;;;;15.00;10.75;;;;;22.00;65.60;101122.28;4936625;28;46117;-75
2021/07/03 05:13:04;;;;;;;;;14.25;13.75;;;;;22.05;65.31;101117.38;4934809;28;45499;-76
2021/07/03 05:15:30;;;;;;;;;12.75;12.25;;;;;22.13;65.43;101122.09;4934618;28;45761;-76
2021/07/03 05:17:56;;;;;;;;;14.75;13.00;;;;;22.20;64.74;101122.44;4934961;28;45539;-75
2021/07/03 05:20:21;;;;;;;;;16.25;13.00;;;;;22.24;64.65;101121.16;4934860;28;46095;-75
2021/07/03 05:22:46;;;;;;;;;17.50;15.00;;;;;22.27;64.94;101119.09;4937002;28;45436;-75
2021/07/03 05:25:12;;;;;;;;;14.00;14.00;;;;;22.32;64.74;101118.69;4934907;28;45448;-76
2021/07/03 05:27:38;;;;;;;;;12.25;11.50;;;;;22.31;64.34;101112.50;4933998;28;45457;-75
2021/07/03 05:30:05;;;;;;;;;14.75;14.00;;;;;22.31;64.40;101109.81;4934325;28;46649;-76
2021/07/03 05:32:30;;;;;;;;;14.00;11.25;;;;;22.38;64.09;101112.81;4934589;28;45979;-76
2021/07/03 05:34:55;;;;;;;;;13.50;12.00;;;;;22.43;64.69;101105.22;4936094;28;45866;-75
2021/07/03 05:37:21;;;;;;;;;13.00;12.00;;;;;22.47;64.09;101095.09;4935090;28;45468;-76
2021/07/03 05:39:46;;;;;;;;;13.25;11.50;;;;;22.51;64.14;101097.38;4933410;28;46105;-75
2021/07/03 05:42:11;;;;;;;;;15.25;13.75;;;;;22.52;64.06;101092.88;4934567;28;45233;-76
2021/07/03 05:44:37;;;;;;;;;11.75;10.75;;;;;22.57;64.03;101091.47;4934783;28;45317;-75
2021/07/03 05:47:02;;;;;;;;;18.25;13.25;;;;;22.62;63.44;101102.63;4935463;28;45186;-76
2021/07/03 05:49:27;;;;;;;;;13.50;13.25;;;;;22.65;63.59;101101.50;4934957;28;45969;-75
2021/07/03 05:51:53;;;;;;;;;16.25;14.00;;;;;22.66;63.22;101095.19;4934713;28;45463;-76
2021/07/03 05:54:18;;;;;;;;;18.25;13.00;;;;;22.64;63.53;101105.19;4934503;28;45812;-75
2021/07/03 05:56:44;;;;;;;;;12.00;11.00;;;;;22.69;63.84;101104.78;4934145;28;45528;-75
2021/07/03 05:59:10;;;;;;;;;14.25;12.50;;;;;22.80;63.44;101100.16;4933938;28;45421;-76
2021/07/03 06:01:35;;;;;;;;;14.00;14.00;;;;;23.03;63.24;101108.03;4935458;28;45342;-76
2021/07/03 06:04:00;;;;;;;;;14.25;13.50;;;;;23.26;62.92;101103.25;4934366;28;45301;-74
2021/07/03 06:06:26;;;;;;;;;17.50;12.00;;;;;23.50;62.96;101109.09;4934052;28;45384;-75
2021/07/03 06:08:51;;;;;;;;;12.75;12.25;;;;;23.77;62.74;101097.66;4937806;28;47639;-75
2021/07/03 06:11:16;;;;;;;;;15.00;13.00;;;;;24.46;62.50;101096.56;4937257;28;45542;-75
2021/07/03 06:13:42;;;;;;;;;18.25;14.00;;;;;25.05;60.54;101092.56;4938792;28;45347;-76
2021/07/03 06:16:08;;;;;;;;;12.25;10.75;;;;;25.49;59.12;101098.13;4937533;28;45652;-75
2021/07/03 06:18:33;;;;;;;;;12.00;12.00;;;;;25.81;58.31;101102.13;4936208;28;46485;-76
2021/07/03 06:20:58;;;;;;;;;15.75;15.75;;;;;25.99;57.78;101114.53;4937188;28;45337;-76
2021/07/03 06:23:25;;;;;;;;;15.00;13.00;;;;;26.06;58.01;101112.06;4938183;28;45439;-76
2021/07/03 06:25:51;;;;;;;;;12.25;12.25;;;;;26.06;57.44;101112.06;4939335;28;45490;-76
2021/07/03 06:28:16;;;;;;;;;16.75;14.00;;;;;25.99;57.45;101121.78;4935637;28;46922;-76
2021/07/03 06:30:42;;;;;;;;;16.00;13.50;;;;;25.92;57.58;101116.16;4935851;28;45626;-77
2021/07/03 06:33:07;;;;;;;;;17.25;12.25;;;;;25.83;57.66;101124.34;4934512;28;45425;-76
2021/07/03 06:35:32;;;;;;;;;15.75;15.25;;;;;25.68;57.61;101124.84;4932697;28;45670;-76
2021/07/03 06:37:58;;;;;;;;;16.25;12.00;;;;;25.58;58.47;101125.94;4937586;28;45479;-80
2021/07/03 06:40:23;;;;;;;;;19.00;15.50;;;;;25.49;57.96;101119.63;4937315;28;45366;-82
2021/07/03 06:42:49;;;;;;;;;14.00;13.50;;;;;25.47;58.27;101119.78;4938735;28;45493;-81
2021/07/03 06:45:14;;;;;;;;;16.25;15.25;;;;;25.42;58.44;101122.09;4941313;28;45864;-82
2021/07/03 06:47:39;;;;;;;;;14.00;12.00;;;;;25.39;58.20;101126.94;4936447;28;47141;-82
2021/07/03 06:50:06;;;;;;;;;12.50;12.00;;;;;25.43;58.29;101122.94;4937185;28;45593;-83
2021/07/03 06:52:32;;;;;;;;;15.25;13.00;;;;;25.52;58.07;101112.09;4938944;28;45483;-82
2021/07/03 06:54:57;;;;;;;;;17.25;12.00;;;;;25.71;58.24;101119.16;4937054;28;45521;-82
2021/07/03 06:57:22;;;;;;;;;15.25;13.50;;;;;25.89;57.44;101129.09;4936104;28;50247;-82
2021/07/03 06:59:48;;;;;;;;;19.50;16.50;;;;;26.02;57.68;101130.38;4936675;28;45479;-82
2021/07/03 07:02:13;;;;;;;;;20.25;15.25;;;;;26.15;56.89;101139.91;4937108;28;45470;-83
2021/07/03 07:04:38;;;;;;;;;17.75;15.25;;;;;26.29;56.87;101139.34;4953456;28;45538;-82
2021/07/03 07:07:04;;;;;;;;;14.00;14.00;;;;;26.47;55.92;101140.16;4936579;28;46018;-82
2021/07/03 07:09:29;;;;;;;;;16.25;13.25;;;;;26.60;55.82;101131.63;4936774;28;45515;-82
2021/07/03 07:11:58;;;;;;;;;17.25;14.50;;;;;26.77;56.29;101129.84;4941676;28;45479;-80
2021/07/03 07:14:24;;;;;;;;;15.75;12.75;;;;;27.01;55.30;101142.59;4935721;28;45384;-80
2021/07/03 07:16:49;;;;;;;;;15.50;14.75;;;;;27.12;55.11;101138.81;4937246;28;46129;-81
2021/07/03 07:19:15;;;;;;;;;20.00;17.25;;;;;27.13;54.35;101144.03;4933420;28;45514;-81
2021/07/03 07:21:40;;;;;;;;;16.75;16.00;;;;;27.11;54.23;101132.56;4936440;28;45454;-80
2021/07/03 07:24:06;;;;;;;;;16.50;15.50;;;;;27.05;54.01;101143.97;4936502;28;45414;-81
2021/07/03 07:26:32;;;;;;;;;17.50;16.00;;;;;27.05;54.09;101143.97;4936081;28;46174;-81
2021/07/03 07:28:58;;;;;;;;;36.50;30.50;;;;;27.05;54.60;101142.13;4932859;28;46133;-75
2021/07/03 07:31:23;;;;;;;;;31.25;24.25;;;;;27.09;54.60;101156.13;4932559;28;46756;-79
2021/07/03 07:33:48;;;;;;;;;17.75;14.00;;;;;27.09;54.06;101145.34;4931664;28;45539;-78
2021/07/03 07:36:14;;;;;;;;;16.50;16.25;;;;;27.10;54.62;101149.75;4935207;28;45342;-81
2021/07/03 07:38:40;;;;;;;;;13.50;12.50;;;;;27.12;54.31;101155.81;4936625;28;45558;-81
2021/07/03 07:41:06;;;;;;;;;17.50;16.25;;;;;27.13;54.14;101148.56;4935883;28;45377;-82
2021/07/03 07:43:32;;;;;;;;;17.25;15.50;;;;;27.09;53.94;101158.00;4935019;28;45416;-82
2021/07/03 07:45:57;;;;;;;;;13.25;13.25;;;;;27.11;54.06;101167.63;4950355;28;46051;-82
2021/07/03 07:48:26;;;;;;;;;20.50;17.25;;;;;27.12;54.22;101166.63;4935456;28;45354;-82
2021/07/03 07:50:52;;;;;;;;;17.50;16.25;;;;;27.09;54.65;101172.31;4935912;28;45385;-82
2021/07/03 07:53:17;;;;;;;;;16.25;14.25;;;;;27.08;54.76;101172.50;4935947;28;45508;-82
2021/07/03 07:55:42;;;;;;;;;16.50;13.00;;;;;27.02;54.13;101171.28;4937666;28;46034;-82
2021/07/03 07:58:08;;;;;;;;;15.00;14.75;;;;;26.93;53.93;101177.63;4935696;28;45531;-81
2021/07/03 08:00:33;;;;;;;;;13.00;13.00;;;;;26.84;53.55;101176.75;4936028;28;45410;-82
2021/07/03 08:02:58;;;;;;;;;14.75;13.25;;;;;26.76;54.39;101171.31;4935544;28;45408;-80
2021/07/03 08:05:25;;;;;;;;;17.25;14.50;;;;;26.69;54.92;101172.97;4935654;28;45412;-82
2021/07/03 08:07:51;;;;;;;;;13.00;12.75;;;;;26.68;55.37;101163.19;4936884;28;45291;-79
2021/07/03 08:10:17;;;;;;;;;14.00;12.25;;;;;26.68;55.64;101166.75;4936069;28;45533;-82
2021/07/03 08:12:42;;;;;;;;;14.25;13.25;;;;;26.70;56.08;101159.31;4935760;28;45255;-82
2021/07/03 08:15:08;;;;;;;;;13.50;12.00;;;;;26.73;55.56;101150.09;4935730;28;46948;-82
2021/07/03 08:17:34;;;;;;;;;14.25;12.25;;;;;26.75;54.83;101146.22;4936268;28;45552;-82
2021/07/03 08:19:59;;;;;;;;;13.25;12.00;;;;;26.78;54.58;101155.81;4936353;28;45362;-81
2021/07/03 08:22:24;;;;;;;;;11.75;11.25;;;;;26.78;54.80;101164.78;4936098;28;45373;-79
2021/07/03 08:24:50;;;;;;;;;16.75;13.00;;;;;26.76;54.98;101166.75;4935535;28;46231;-88
2021/07/03 08:27:15;;;;;;;;;13.50;11.75;;;;;26.76;55.01;101164.06;4936684;28;45326;-82
2021/07/03 08:29:41;;;;;;;;;15.75;14.25;;;;;26.77;54.59;101157.66;4935612;28;45508;-82
2021/07/03 08:32:06;;;;;;;;;10.50;10.50;;;;;26.81;54.58;101152.81;4933027;28;45380;-79
2021/07/03 08:34:32;;;;;;;;;12.25;11.25;;;;;26.84;55.08;101159.75;4935960;28;46271;-79
2021/07/03 08:36:57;;;;;;;;;15.25;12.75;;;;;26.85;53.24;101167.66;4934176;28;45661;-79
2021/07/03 08:39:22;;;;;;;;;13.50;12.00;;;;;26.69;52.59;101167.59;4935824;28;45454;-80
2021/07/03 08:41:48;;;;;;;;;12.00;10.50;;;;;26.48;53.09;101159.88;4935413;28;45341;-81
2021/07/03 08:44:14;;;;;;;;;10.25;10.25;;;;;26.37;53.63;101166.34;4935489;28;45424;-86
2021/07/03 08:46:45;;;;;;;;;10.00;7.25;;;;;26.26;53.06;101163.91;4935563;28;46228;-85
2021/07/03 08:49:12;;;;;;;;;11.00;11.00;;;;;26.16;53.92;101171.25;4935466;28;45895;-85
2021/07/03 08:51:43;;;;;;;;;9.75;9.75;;;;;26.02;53.44;101170.78;4934767;28;45392;-85
2021/07/03 08:54:09;;;;;;;;;13.25;12.25;;;;;25.86;53.79;101165.28;4935839;28;46325;-85
2021/07/03 08:56:34;;;;;;;;;13.00;11.50;;;;;25.80;54.83;101167.75;4935763;28;45301;-77
2021/07/03 08:58:59;;;;;;;;;13.00;11.75;;;;;25.79;54.01;101164.22;4939343;28;45469;-87
2021/07/03 09:01:25;;;;;;;;;9.50;9.50;;;;;25.86;53.84;101176.03;4940781;28;45507;-84
2021/07/03 09:03:56;;;;;;;;;12.25;10.75;;;;;25.93;54.12;101181.66;4935331;28;45612;-85
2021/07/03 09:06:32;;;;;;;;;16.00;13.00;;;;;26.03;54.08;101171.63;4936254;28;45795;-86
2021/07/03 09:08:57;;;;;;;;;10.00;10.00;;;;;26.16;54.61;101171.25;4940865;28;45403;-84
2021/07/03 09:11:22;;;;;;;;;10.75;10.25;;;;;26.28;53.93;101173.53;4944241;28;45507;-84
2021/07/03 09:14:01;;;;;;;;;13.25;9.50;;;;;26.34;53.36;101169.34;4945167;28;47164;-84
2021/07/03 09:16:31;;;;;;;;;10.00;10.00;;;;;26.37;53.46;101178.97;4944586;28;45462;-85
2021/07/03 09:18:56;;;;;;;;;14.25;12.25;;;;;26.35;53.82;101176.41;4944402;28;45523;-83
2021/07/03 09:21:22;;;;;;;;;13.75;12.25;;;;;26.40;54.67;101175.94;4944452;28;45432;-86
2021/07/03 09:23:47;;;;;;;;;15.25;11.50;;;;;26.48;54.18;101171.50;4940912;28;47144;-85
2021/07/03 09:26:12;;;;;;;;;11.50;10.50;;;;;26.61;53.99;101175.59;4935375;28;45520;-85
2021/07/03 09:28:40;;;;;;;;;12.00;10.50;;;;;26.68;54.92;101174.81;4937090;28;45305;-86
2021/07/03 09:31:08;;;;;;;;;12.00;12.00;;;;;26.79;54.55;101179.94;4935081;28;45450;-85
2021/07/03 09:33:36;;;;;;;;;10.75;10.00;;;;;26.83;54.79;101176.91;4935066;28;46382;-85
2021/07/03 09:36:05;;;;;;;;;13.50;10.75;;;;;26.85;54.61;101173.06;4934563;28;45246;-86
2021/07/03 09:38:34;;;;;;;;;13.25;10.25;;;;;26.83;54.55;101179.59;4935079;28;45388;-82
2021/07/03 09:41:14;;;;;;;;;14.50;12.25;;;;;26.80;54.43;101178.94;4936576;28;45499;-82
2021/07/03 09:43:48;;;;;;;;;15.50;12.75;;;;;26.75;54.99;101175.88;4938789;28;45904;-85
2021/07/03 09:46:32;;;;;;;;;13.75;13.00;;;;;26.66;54.88;101189.47;4937772;28;45597;-85
2021/07/03 09:49:15;;;;;;;;;12.25;10.75;;;;;26.57;55.27;101190.41;4937704;28;45440;-84
2021/07/03 09:51:43;;;;;;;;;10.00;10.00;;;;;26.46;55.40;101186.97;4938063;28;45372;-83
2021/07/03 09:54:11;;;;;;;;;9.00;9.00;;;;;26.46;55.33;101191.50;4938614;28;46277;-83
2021/07/03 09:56:38;;;;;;;;;14.75;12.75;;;;;26.48;55.17;101194.91;4937954;28;45784;-81
2021/07/03 09:59:04;;;;;;;;;17.25;13.50;;;;;26.47;55.09;101194.06;4944088;28;45476;-84
2021/07/03 10:01:29;;;;;;;;;11.75;11.75;;;;;26.52;54.52;101204.38;4946582;28;45329;-84
2021/07/03 10:03:56;;;;;;;;;11.00;10.75;;;;;26.52;54.62;101201.69;4945561;28;46427;-83
2021/07/03 10:06:32;;;;;;;;;12.00;11.50;;;;;26.49;53.89;101207.38;4946671;28;45475;-84
2021/07/03 10:09:05;;;;;;;;;11.00;9.00;;;;;26.52;53.83;101209.78;4939419;28;45441;-86
2021/07/03 10:11:37;;;;;;;;;12.75;8.25;;;;;26.54;53.90;101219.38;4938481;28;45547;-85
2021/07/03 10:14:04;;;;;;;;;14.00;11.75;;;;;26.72;53.02;101211.22;4932872;28;45514;-86
2021/07/03 10:16:30;;;;;;;;;12.00;11.50;;;;;26.93;52.86;101201.91;4941346;28;45663;-85
2021/07/03 10:19:15;;;;;;;;;12.00;10.00;;;;;27.08;52.89;101202.19;4937717;28;45313;-84
2021/07/03 10:21:45;;;;;;;;;12.00;10.00;;;;;27.18;52.41;101205.59;4937539;28;45322;-85
2021/07/03 10:24:19;;;;;;;;;10.50;9.75;;;;;27.34;52.23;101202.09;4937298;28;46247;-85
2021/07/03 10:26:44;;;;;;;;;11.00;10.50;;;;;27.34;51.10;101204.81;4936466;28;45807;-85
2021/07/03 10:29:18;;;;;;;;;10.25;9.25;;;;;27.12;50.66;101193.59;4938438;28;45396;-85
2021/07/03 10:31:45;;;;;;;;;11.25;9.50;;;;;26.91;51.35;101193.13;4939854;28;45378;-85
2021/07/03 10:34:10;;;;;;;;;10.75;9.50;;;;;26.89;51.38;101195.16;4937384;28;46395;-85
2021/07/03 10:36:36;;;;;;;;;10.25;9.00;;;;;26.93;51.29;101196.50;4937392;28;45315;-86
2021/07/03 10:39:03;;;;;;;;;11.50;10.25;;;;;26.99;51.39;101198.56;4937992;28;45704;-85
2021/07/03 10:41:31;;;;;;;;;11.75;11.00;;;;;27.21;51.81;101199.88;4936716;28;45580;-87
2021/07/03 10:44:09;;;;;;;;;13.75;11.00;;;;;27.52;52.25;101202.84;4937465;28;46556;-85
2021/07/03 10:46:41;;;;;;;;;12.50;10.75;;;;;27.93;50.56;101201.09;4938906;28;45459;-85
2021/07/03 10:49:10;;;;;;;;;14.25;12.25;;;;;28.19;50.17;101200.06;4940392;28;45702;-87
2021/07/03 10:51:48;;;;;;;;;12.00;12.00;;;;;28.44;49.62;101204.47;4943424;28;45364;-86
2021/07/03 10:54:15;;;;;;;;;11.00;11.00;;;;;28.76;49.44;101202.72;4941125;28;46310;-87
2021/07/03 10:56:43;;;;;;;;;12.00;12.00;;;;;29.01;48.66;101196.22;4940018;28;45547;-88
2021/07/03 10:59:11;;;;;;;;;14.75;12.25;;;;;29.24;48.32;101204.44;4940563;28;45531;-83
2021/07/03 11:01:38;;;;;;;;;10.25;10.25;;;;;29.60;48.44;101198.50;4942927;28;45446;-84
2021/07/03 11:04:18;;;;;;;;;11.00;9.75;;;;;29.82;47.44;101199.56;4940320;28;46994;-83
2021/07/03 11:06:53;;;;;;;;;8.00;7.25;;;;;29.81;45.38;101198.72;4940644;28;45400;-75